Time;durP1;ratioP1;P1;durP2;ratioP2;P2;SDS_P1;SDS_P2;PMS_P1;PMS_P2;Temp;Humidity;BMP_temperature;BMP_pressure;BME280_temperature;BME280_humidity;BME280_pressure;Samples;Min_cycle;Max_cycle;Signal;HPM_P1;HPM_P2
2022/09/28 00:01:20;;;;;;;3.50;1.77;;;15.80;81.50;;;;;;5027984;28;20250;-68
2022/09/28 00:03:49;;;;;;;5.20;2.07;;;15.90;81.80;;;;;;5019855;28;20658;-68
2022/09/28 00:06:19;;;;;;;6.27;2.43;;;15.90;81.70;;;;;;5020763;28;20207;-69
2022/09/28 00:08:48;;;;;;;5.73;1.60;;;15.90;81.90;;;;;;5020891;28;20401;-68
2022/09/28 00:11:19;;;;;;;3.47;1.60;;;15.90;81.90;;;;;;5023129;28;20219;-68
2022/09/28 00:13:52;;;;;;;7.67;2.47;;;16.00;82.10;;;;;;5013567;28;20225;-69
2022/09/28 00:16:22;;;;;;;7.20;1.70;;;15.90;82.10;;;;;;5017389;28;20207;-68
2022/09/28 00:18:51;;;;;;;5.23;2.07;;;16.00;82.30;;;;;;5018795;28;20242;-68
2022/09/28 00:21:23;;;;;;;5.60;1.50;;;16.00;82.30;;;;;;5021281;28;20207;-68
2022/09/28 00:24:11;;;;;;;7.27;2.23;;;16.00;82.40;;;;;;5016393;28;20330;-68
2022/09/28 00:26:39;;;;;;;3.53;2.37;;;16.00;82.50;;;;;;5014460;28;20237;-68
2022/09/28 00:29:23;;;;;;;4.17;2.17;;;16.00;82.40;;;;;;5021498;28;20210;-68
2022/09/28 00:31:53;;;;;;;7.33;2.10;;;15.90;82.50;;;;;;5020763;28;20227;-69
2022/09/28 00:34:20;;;;;;;4.63;1.53;;;15.90;82.70;;;;;;5022448;28;20215;-68
2022/09/28 00:36:47;;;;;;;7.90;2.10;;;15.90;82.80;;;;;;5019153;28;20636;-68
2022/09/28 00:39:15;;;;;;;4.37;1.87;;;15.90;82.80;;;;;;5026357;28;20210;-68
2022/09/28 00:41:44;;;;;;;5.03;1.80;;;15.80;82.80;;;;;;5026902;28;20207;-68
2022/09/28 00:44:23;;;;;;;3.47;1.80;;;15.80;82.80;;;;;;5004104;28;20219;-68
2022/09/28 00:46:53;;;;;;;4.90;1.70;;;15.80;82.90;;;;;;5019531;28;20493;-68
2022/09/28 00:49:37;;;;;;;8.43;2.10;;;15.80;83.10;;;;;;5018731;28;20217;-68
2022/09/28 00:52:08;;;;;;;6.53;1.87;;;15.70;83.10;;;;;;5022586;28;20669;-68
2022/09/28 00:54:35;;;;;;;6.73;1.60;;;15.70;83.10;;;;;;5031953;28;20228;-68
2022/09/28 00:57:04;;;;;;;5.00;2.17;;;15.70;83.10;;;;;;5017061;28;20586;-68
2022/09/28 00:59:32;;;;;;;5.13;1.93;;;15.70;83.10;;;;;;5002834;28;20229;-68
2022/09/28 01:02:00;;;;;;;7.70;1.70;;;15.60;83.10;;;;;;5019133;28;20203;-68
2022/09/28 01:04:29;;;;;;;5.83;1.27;;;15.60;83.20;;;;;;5023429;28;20214;-68
2022/09/28 01:06:58;;;;;;;4.47;1.30;;;15.50;83.40;;;;;;5031238;28;20265;-69
2022/09/28 01:09:26;;;;;;;9.30;2.20;;;15.50;83.30;;;;;;5022449;28;20215;-69
2022/09/28 01:11:54;;;;;;;4.47;1.73;;;15.50;83.10;;;;;;5009781;28;20586;-68
2022/09/28 01:14:24;;;;;;;4.43;1.67;;;15.50;83.20;;;;;;5023786;28;20269;-68
2022/09/28 01:16:51;;;;;;;8.03;1.90;;;15.50;83.40;;;;;;5025301;28;20435;-68
2022/09/28 01:20:05;;;;;;;2.27;1.60;;;15.40;83.60;;;;;;5018937;28;20277;-68
2022/09/28 01:22:34;;;;;;;2.50;1.33;;;15.40;83.70;;;;;;5024343;28;20194;-68
2022/09/28 01:25:12;;;;;;;4.07;1.73;;;15.40;83.50;;;;;;5026138;28;20207;-69
2022/09/28 01:27:49;;;;;;;5.13;1.90;;;15.40;83.30;;;;;;5028922;28;20232;-68
2022/09/28 01:30:19;;;;;;;11.67;1.87;;;15.30;83.70;;;;;;5027670;28;20206;-69
2022/09/28 01:33:11;;;;;;;7.23;1.90;;;15.30;84.00;;;;;;5024087;28;20215;-69
2022/09/28 01:35:57;;;;;;;7.43;2.33;;;15.30;83.90;;;;;;5008763;28;20207;-68
2022/09/28 01:38:35;;;;;;;4.73;1.97;;;15.30;83.80;;;;;;5022129;28;20714;-68
2022/09/28 01:41:03;;;;;;;3.87;1.53;;;15.20;84.00;;;;;;5006344;28;20218;-68
2022/09/28 01:43:37;;;;;;;6.40;1.70;;;15.20;84.30;;;;;;5011659;28;20208;-68
2022/09/28 01:46:21;;;;;;;8.20;2.07;;;15.20;84.40;;;;;;5028101;28;20215;-68
2022/09/28 01:48:54;;;;;;;4.80;1.93;;;15.20;84.30;;;;;;5029369;28;20206;-68
2022/09/28 01:51:34;;;;;;;4.77;1.63;;;15.10;84.10;;;;;;5019258;28;20233;-68
2022/09/28 01:54:15;;;;;;;3.20;1.53;;;15.10;84.30;;;;;;5013515;28;20200;-68
2022/09/28 01:57:18;;;;;;;6.17;1.63;;;15.10;84.70;;;;;;5030828;28;20565;-68
2022/09/28 02:00:12;;;;;;;7.67;2.20;;;15.10;84.90;;;;;;5032235;28;20207;-68
2022/09/28 02:03:23;;;;;;;1.70;1.30;;;15.10;85.10;;;;;;5008837;28;20207;-68
2022/09/28 02:06:04;;;;;;;3.67;1.57;;;15.10;85.30;;;;;;5039881;28;20206;-68
2022/09/28 02:08:39;;;;;;;5.97;1.77;;;15.00;85.30;;;;;;5020858;28;20211;-68
2022/09/28 02:11:18;;;;;;;3.63;1.57;;;15.00;85.50;;;;;;5010890;28;20261;-68
2022/09/28 02:13:47;;;;;;;3.37;1.90;;;15.00;85.60;;;;;;5037061;28;20273;-68
2022/09/28 02:16:40;;;;;;;10.53;3.20;;;15.00;85.60;;;;;;5020508;28;20202;-68
2022/09/28 02:19:30;;;;;;;5.43;2.27;;;14.90;85.70;;;;;;5021735;28;20244;-68
2022/09/28 02:22:00;;;;;;;6.30;1.93;;;14.90;85.90;;;;;;5024475;28;20207;-68
2022/09/28 02:24:33;;;;;;;6.77;2.50;;;14.90;85.90;;;;;;5020098;28;20221;-68
2022/09/28 02:27:06;;;;;;;6.67;1.77;;;14.80;86.10;;;;;;5027377;28;20293;-68
2022/09/28 02:29:33;;;;;;;3.37;1.87;;;14.80;86.30;;;;;;5027636;28;20612;-68
2022/09/28 02:32:00;;;;;;;2.47;1.83;;;14.80;86.40;;;;;;5023439;28;20219;-68
2022/09/28 02:34:28;;;;;;;4.23;1.93;;;14.80;86.80;;;;;;5022173;28;20197;-68
2022/09/28 02:36:55;;;;;;;4.57;2.37;;;14.80;87.50;;;;;;5021363;28;20636;-68
2022/09/28 02:39:22;;;;;;;5.20;2.30;;;14.80;88.00;;;;;;5003535;28;20627;-69
2022/09/28 02:42:07;;;;;;;6.50;2.57;;;14.80;88.60;;;;;;5026323;28;20213;-68
2022/09/28 02:44:56;;;;;;;4.43;2.00;;;14.80;89.00;;;;;;5010454;28;20305;-68
2022/09/28 02:48:06;;;;;;;7.53;2.40;;;14.80;89.30;;;;;;5015300;28;20244;-68
2022/09/28 02:50:43;;;;;;;10.83;2.83;;;14.80;89.10;;;;;;5026749;28;20211;-68
2022/09/28 02:53:28;;;;;;;3.33;2.40;;;14.80;88.80;;;;;;5021131;28;20208;-68
2022/09/28 02:56:04;;;;;;;5.73;2.60;;;14.80;89.20;;;;;;5017043;28;20273;-68
2022/09/28 02:58:53;;;;;;;5.90;2.20;;;14.80;89.00;;;;;;5021972;28;20222;-68
2022/09/28 03:01:23;;;;;;;6.00;2.87;;;14.80;89.10;;;;;;5028957;28;20218;-68
2022/09/28 03:03:57;;;;;;;3.33;2.13;;;14.80;89.10;;;;;;5024362;28;20590;-68
2022/09/28 03:07:02;;;;;;;5.60;2.10;;;14.80;89.20;;;;;;5023546;28;20215;-68
2022/09/28 03:09:41;;;;;;;6.53;2.27;;;14.90;89.40;;;;;;5022900;28;20221;-68
2022/09/28 03:12:13;;;;;;;5.33;2.03;;;14.90;89.60;;;;;;5026917;28;20273;-68
2022/09/28 03:14:40;;;;;;;10.03;2.33;;;14.80;89.60;;;;;;5023657;28;20218;-68
2022/09/28 03:17:07;;;;;;;5.30;2.27;;;14.80;90.00;;;;;;5022727;28;20296;-68
2022/09/28 03:19:35;;;;;;;12.03;3.27;;;14.90;90.30;;;;;;5010581;28;20249;-68
2022/09/28 03:22:04;;;;;;;4.90;2.90;;;14.90;90.30;;;;;;5017686;28;20604;-68
2022/09/28 03:24:31;;;;;;;8.10;2.60;;;14.90;90.40;;;;;;5021736;28;20269;-68
2022/09/28 03:26:58;;;;;;;5.93;2.50;;;14.90;90.40;;;;;;5017909;28;20199;-68
2022/09/28 03:29:25;;;;;;;8.43;2.40;;;14.90;90.40;;;;;;5024624;28;20604;-68
2022/09/28 03:31:58;;;;;;;6.23;2.50;;;15.00;90.40;;;;;;5020091;28;20257;-68
2022/09/28 03:34:25;;;;;;;4.10;2.10;;;14.90;90.30;;;;;;5020673;28;20207;-68
2022/09/28 03:36:52;;;;;;;7.97;2.77;;;14.90;90.20;;;;;;5007490;28;20211;-68
2022/09/28 03:39:20;;;;;;;6.13;2.23;;;14.90;90.30;;;;;;5016684;28;20203;-68
2022/09/28 03:41:47;;;;;;;5.10;3.30;;;14.90;90.40;;;;;;5020733;28;20261;-68
2022/09/28 03:44:15;;;;;;;4.77;3.07;;;14.90;90.40;;;;;;5025063;28;20298;-68
2022/09/28 03:46:42;;;;;;;4.20;2.73;;;14.90;90.50;;;;;;5027905;28;20202;-68
2022/09/28 03:49:09;;;;;;;9.70;2.90;;;14.90;90.40;;;;;;5023814;28;20708;-68
2022/09/28 03:51:37;;;;;;;6.20;3.27;;;14.90;90.40;;;;;;5001596;28;20230;-68
2022/09/28 03:54:04;;;;;;;6.63;4.20;;;14.90;90.40;;;;;;5019420;28;20221;-68
2022/09/28 03:56:31;;;;;;;8.33;4.33;;;14.90;90.40;;;;;;5020440;28;20206;-68
2022/09/28 03:58:58;;;;;;;6.20;4.80;;;14.90;90.30;;;;;;5020624;28;20214;-68
2022/09/28 04:01:26;;;;;;;5.07;4.20;;;14.90;90.40;;;;;;5025620;28;20315;-68
2022/09/28 04:03:56;;;;;;;10.07;4.80;;;14.90;90.50;;;;;;5019335;28;20290;-68
2022/09/28 04:06:24;;;;;;;5.53;4.40;;;14.90;90.50;;;;;;5028707;28;20242;-68
2022/09/28 04:08:52;;;;;;;6.23;5.33;;;14.90;90.50;;;;;;5019635;28;20537;-68
2022/09/28 04:11:19;;;;;;;7.40;4.97;;;14.90;90.50;;;;;;5026720;28;20230;-68
2022/09/28 04:13:48;;;;;;;9.03;5.67;;;14.90;90.60;;;;;;5024097;28;20270;-68
2022/09/28 04:16:17;;;;;;;6.00;5.23;;;14.90;90.60;;;;;;5007577;28;20238;-68
2022/09/28 04:18:54;;;;;;;9.17;5.43;;;14.90;90.70;;;;;;5015499;28;20247;-68
2022/09/28 04:21:39;;;;;;;13.77;6.30;;;14.90;90.60;;;;;;5025441;28;20587;-68
2022/09/28 04:24:10;;;;;;;8.63;6.43;;;14.90;90.70;;;;;;5024953;28;20273;-68
2022/09/28 04:26:37;;;;;;;7.33;6.07;;;14.80;90.70;;;;;;5018842;28;20258;-68
2022/09/28 04:29:16;;;;;;;7.70;6.77;;;14.90;90.80;;;;;;5019562;28;20214;-68
2022/09/28 04:31:50;;;;;;;9.07;6.57;;;14.90;90.80;;;;;;5021558;28;20230;-68
2022/09/28 04:34:21;;;;;;;8.00;6.47;;;14.90;90.80;;;;;;5022926;28;20210;-68
2022/09/28 04:36:48;;;;;;;10.53;7.30;;;14.90;90.80;;;;;;5010225;28;20658;-68
2022/09/28 04:39:17;;;;;;;8.53;7.00;;;14.90;90.80;;;;;;5021667;28;20605;-68
2022/09/28 04:41:48;;;;;;;10.40;7.77;;;14.90;90.90;;;;;;5024682;28;20221;-68
2022/09/28 04:44:16;;;;;;;9.50;7.80;;;14.90;90.90;;;;;;5025516;28;20233;-68
2022/09/28 04:46:44;;;;;;;11.83;8.50;;;14.90;90.90;;;;;;5022074;28;20545;-68
2022/09/28 04:49:37;;;;;;;10.83;8.37;;;14.90;90.90;;;;;;5019798;28;20285;-68
2022/09/28 04:52:17;;;;;;;8.90;8.00;;;14.90;90.90;;;;;;5026075;28;20561;-68
2022/09/28 04:54:47;;;;;;;9.33;7.67;;;14.90;91.00;;;;;;5027989;28;20207;-68
2022/09/28 04:57:15;;;;;;;10.17;9.10;;;14.90;91.10;;;;;;5018933;28;20210;-68
2022/09/28 04:59:42;;;;;;;10.77;8.90;;;14.90;91.10;;;;;;5019571;28;20268;-68
2022/09/28 05:02:10;;;;;;;10.70;8.37;;;14.90;91.20;;;;;;5023744;28;20641;-68
2022/09/28 05:05:12;;;;;;;11.17;9.07;;;14.90;91.30;;;;;;5022111;28;20214;-68
2022/09/28 05:07:58;;;;;;;11.80;8.77;;;14.90;91.30;;;;;;5031017;28;20215;-68
2022/09/28 05:10:25;;;;;;;11.53;9.23;;;14.90;91.40;;;;;;5006062;28;20218;-68
2022/09/28 05:12:52;;;;;;;12.80;9.63;;;14.90;91.40;;;;;;5022016;28;20236;-68
2022/09/28 05:15:19;;;;;;;14.10;9.27;;;14.90;91.40;;;;;;5024013;28;20330;-68
2022/09/28 05:17:47;;;;;;;24.93;10.90;;;15.00;91.40;;;;;;5023368;28;20200;-68
2022/09/28 05:20:40;;;;;;;12.57;9.17;;;14.90;91.40;;;;;;5017558;28;20228;-68
2022/09/28 05:23:10;;;;;;;12.47;9.20;;;14.90;91.40;;;;;;5013305;28;20284;-68
2022/09/28 05:25:41;;;;;;;10.07;8.40;;;15.00;91.40;;;;;;5034143;28;20218;-68
2022/09/28 05:28:24;;;;;;;13.00;9.70;;;15.00;91.40;;;;;;5009929;28;20222;-68
2022/09/28 05:31:11;;;;;;;10.97;9.33;;;14.90;91.40;;;;;;5020889;28;20241;-68
2022/09/28 05:33:56;;;;;;;11.73;9.20;;;14.90;91.40;;;;;;5030994;28;20199;-68
2022/09/28 05:36:26;;;;;;;11.20;8.73;;;14.90;91.40;;;;;;5021962;28;20210;-68
2022/09/28 05:38:53;;;;;;;10.63;9.50;;;14.90;91.40;;;;;;5030744;28;20304;-68
2022/09/28 05:41:20;;;;;;;11.37;8.87;;;15.00;91.50;;;;;;5020029;28;20198;-68
2022/09/28 05:43:47;;;;;;;12.70;9.63;;;15.00;91.50;;;;;;5027058;28;20208;-68
2022/09/28 05:46:15;;;;;;;16.13;9.90;;;15.00;91.50;;;;;;5010974;28;20194;-68
2022/09/28 05:48:42;;;;;;;13.47;9.90;;;15.00;91.70;;;;;;5026827;28;20601;-68
2022/09/28 05:51:09;;;;;;;13.75;10.30;;;15.10;91.80;;;;;;5024174;28;20656;-68
2022/09/28 05:53:36;;;;;;;11.37;9.47;;;15.10;91.90;;;;;;5018949;28;20203;-68
2022/09/28 05:56:04;;;;;;;11.43;8.87;;;15.20;91.90;;;;;;5013852;28;20208;-68
2022/09/28 05:58:34;;;;;;;12.40;10.73;;;15.20;91.90;;;;;;5020506;28;20207;-68
2022/09/28 06:01:01;;;;;;;10.90;9.80;;;15.30;91.80;;;;;;5017156;28;20290;-68
2022/09/28 06:03:29;;;;;;;12.53;10.50;;;15.40;91.70;;;;;;5022021;28;20617;-68
2022/09/28 06:06:00;;;;;;;13.43;9.50;;;15.50;91.70;;;;;;5024635;28;20196;-68
2022/09/28 06:08:29;;;;;;;13.33;10.80;;;15.50;91.70;;;;;;5018598;28;20216;-68
2022/09/28 06:11:11;;;;;;;14.90;10.93;;;15.50;91.50;;;;;;5023898;28;20604;-68
2022/09/28 06:13:41;;;;;;;12.37;11.07;;;15.50;91.40;;;;;;5026183;28;20200;-68
2022/09/28 06:16:15;;;;;;;12.60;10.70;;;15.60;91.50;;;;;;5018570;28;20562;-68
2022/09/28 06:18:42;;;;;;;13.17;10.17;;;15.60;91.50;;;;;;5026656;28;20204;-68
2022/09/28 06:21:28;;;;;;;10.87;9.30;;;15.50;91.50;;;;;;5018187;28;20297;-68
2022/09/28 06:23:55;;;;;;;13.10;8.87;;;15.60;91.50;;;;;;5021752;28;20215;-68
2022/09/28 06:26:23;;;;;;;13.33;9.63;;;15.60;91.50;;;;;;5000158;28;20279;-68
2022/09/28 06:28:50;;;;;;;12.73;8.77;;;15.60;91.50;;;;;;5008563;28;20206;-68
2022/09/28 06:31:22;;;;;;;11.17;8.20;;;15.60;91.50;;;;;;5023199;28;20586;-68
2022/09/28 06:33:50;;;;;;;10.50;8.47;;;15.60;91.50;;;;;;5019263;28;20277;-68
2022/09/28 06:36:18;;;;;;;9.83;8.37;;;15.60;91.50;;;;;;5020146;28;20229;-68
2022/09/28 06:38:46;;;;;;;8.70;7.13;;;15.70;91.40;;;;;;5029882;28;20253;-68
2022/09/28 06:41:14;;;;;;;7.87;6.80;;;15.70;91.20;;;;;;5014369;28;20269;-68
2022/09/28 06:43:42;;;;;;;8.73;6.27;;;15.70;91.30;;;;;;5022376;28;20314;-68
2022/09/28 06:46:12;;;;;;;7.57;6.83;;;15.70;91.30;;;;;;5020650;28;20210;-68
2022/09/28 06:49:09;;;;;;;10.60;6.63;;;15.70;91.20;;;;;;5022706;28;20280;-68
2022/09/28 06:51:55;;;;;;;8.77;6.40;;;15.70;91.20;;;;;;5026932;28;20238;-68
2022/09/28 06:54:42;;;;;;;9.60;7.30;;;15.70;91.00;;;;;;5020434;28;20631;-68
2022/09/28 06:57:32;;;;;;;9.73;7.07;;;15.70;91.00;;;;;;5019222;28;20211;-68
2022/09/28 06:59:59;;;;;;;9.30;6.97;;;15.80;91.20;;;;;;5026894;28;20658;-68
2022/09/28 07:02:26;;;;;;;7.77;6.93;;;15.80;91.20;;;;;;5021029;28;20559;-68
2022/09/28 07:05:02;;;;;;;8.23;6.73;;;15.90;91.20;;;;;;5018773;28;20211;-68
2022/09/28 07:07:41;;;;;;;12.53;6.50;;;15.90;91.10;;;;;;5027000;28;20218;-68
2022/09/28 07:10:46;;;;;;;7.63;6.10;;;15.90;91.10;;;;;;5022148;28;20249;-68
2022/09/28 07:13:48;;;;;;;9.23;5.77;;;16.00;91.10;;;;;;5030019;28;20335;-68
2022/09/28 07:16:20;;;;;;;6.37;5.60;;;16.10;91.00;;;;;;5022980;28;20276;-68
2022/09/28 07:18:54;;;;;;;6.80;5.67;;;16.10;91.00;;;;;;5019685;28;20297;-69
2022/09/28 07:21:21;;;;;;;7.40;5.10;;;16.20;91.00;;;;;;5025936;28;20219;-68
2022/09/28 07:23:59;;;;;;;5.83;4.40;;;16.30;90.80;;;;;;5019792;28;20302;-68
2022/09/28 07:26:45;;;;;;;10.37;4.57;;;16.40;90.90;;;;;;5018966;28;20713;-67
2022/09/28 07:29:47;;;;;;;6.60;5.03;;;16.40;90.80;;;;;;5028149;28;20248;-68
2022/09/28 07:32:22;;;;;;;5.70;4.03;;;16.60;90.70;;;;;;5027093;28;20230;-68
2022/09/28 07:34:56;;;;;;;5.13;4.20;;;16.70;90.60;;;;;;5023834;28;20228;-67
2022/09/28 07:37:43;;;;;;;9.60;4.27;;;16.80;90.50;;;;;;5021951;28;20732;-68
2022/09/28 07:43:03;;;;;;;5.17;4.23;;;17.00;90.40;;;;;;5023588;28;20234;-68
2022/09/28 07:45:34;;;;;;;7.10;4.30;;;17.10;90.30;;;;;;5037430;28;20749;-68
2022/09/28 07:48:02;;;;;;;7.27;3.90;;;17.20;90.00;;;;;;5020448;28;20211;-68
2022/09/28 07:50:53;;;;;;;4.80;3.77;;;17.20;89.20;;;;;;5019977;28;20226;-68
2022/09/28 07:53:32;;;;;;;5.60;4.23;;;17.30;89.10;;;;;;5025792;28;20668;-67
2022/09/28 07:56:16;;;;;;;8.00;4.17;;;17.30;89.10;;;;;;5006726;28;20199;-68
2022/09/28 07:59:06;;;;;;;4.10;3.70;;;17.40;88.20;;;;;;5022402;28;20215;-69
2022/09/28 08:01:39;;;;;;;3.50;2.90;;;17.40;88.20;;;;;;5019377;28;20207;-68
2022/09/28 08:04:09;;;;;;;6.30;2.97;;;17.40;87.90;;;;;;5018825;28;20215;-68
2022/09/28 08:06:39;;;;;;;4.53;2.97;;;17.40;87.30;;;;;;5022630;28;20215;-68
2022/09/28 08:09:08;;;;;;;5.77;2.80;;;17.50;86.80;;;;;;5020937;28;20204;-69
2022/09/28 08:11:53;;;;;;;6.70;2.87;;;17.50;87.20;;;;;;5023336;28;20238;-68
2022/09/28 08:14:54;;;;;;;5.27;3.13;;;17.50;87.10;;;;;;5021278;28;20630;-68
2022/09/28 08:17:50;;;;;;;5.80;2.63;;;17.50;87.30;;;;;;5014343;28;20217;-68
2022/09/28 08:23:08;;;;;;;5.93;3.50;;;17.70;86.40;;;;;;5027503;28;20557;-68
2022/09/28 08:25:37;;;;;;;4.93;3.00;;;17.70;86.30;;;;;;5016992;28;20212;-68
2022/09/28 08:28:06;;;;;;;4.10;2.83;;;17.80;85.80;;;;;;5019707;28;20222;-68
2022/09/28 08:30:39;;;;;;;5.97;3.07;;;17.80;84.70;;;;;;5019708;28;20220;-68
2022/09/28 08:33:24;;;;;;;4.63;2.60;;;17.90;85.30;;;;;;5017729;28;20250;-68
2022/09/28 08:36:10;;;;;;;4.27;3.00;;;17.90;85.60;;;;;;5019480;28;20211;-68
2022/09/28 08:39:04;;;;;;;6.43;3.10;;;18.10;85.20;;;;;;5029023;28;20313;-68
2022/09/28 08:42:11;;;;;;;5.60;2.93;;;18.10;84.60;;;;;;5017834;28;20790;-68
2022/09/28 08:44:42;;;;;;;7.43;3.27;;;18.10;84.00;;;;;;5019150;28;20208;-68
2022/09/28 08:50:32;;;;;;;3.87;3.07;;;18.10;84.70;;;;;;5036279;28;20230;-68
2022/09/28 08:53:38;;;;;;;4.30;2.53;;;18.20;84.20;;;;;;5021433;28;20220;-68
2022/09/28 08:56:38;;;;;;;4.57;2.83;;;18.20;84.70;;;;;;5022557;28;20229;-68
2022/09/28 08:59:17;;;;;;;4.40;2.40;;;18.40;84.70;;;;;;5030750;28;20304;-68
2022/09/28 09:02:04;;;;;;;4.27;2.43;;;18.50;84.20;;;;;;5020140;28;20221;-69
2022/09/28 09:04:33;;;;;;;5.80;2.67;;;18.60;83.40;;;;;;5018397;28;20200;-69
2022/09/28 09:08:10;;;;;;;5.87;2.13;;;18.70;82.90;;;;;;5019652;28;20276;-69
2022/09/28 09:10:50;;;;;;;5.10;2.30;;;18.80;81.90;;;;;;5005792;28;20199;-68
2022/09/28 09:13:49;;;;;;;4.70;2.50;;;18.80;81.80;;;;;;5016306;28;20227;-69
2022/09/28 09:16:39;;;;;;;3.77;2.43;;;18.80;81.50;;;;;;5026587;28;20307;-68
2022/09/28 09:19:58;;;;;;;5.63;2.63;;;18.90;81.90;;;;;;5045223;28;20274;-68
2022/09/28 09:23:04;;;;;;;2.97;2.00;;;19.10;83.10;;;;;;5025543;28;20646;-69
2022/09/28 09:25:49;;;;;;;6.67;2.30;;;19.40;81.00;;;;;;5017838;28;20214;-68
2022/09/28 09:28:31;;;;;;;3.40;1.93;;;19.60;79.30;;;;;;5039880;28;20830;-68
2022/09/28 09:31:22;;;;;;;4.10;2.27;;;19.80;78.90;;;;;;5012469;28;20546;-68
2022/09/28 09:33:57;;;;;;;5.57;2.33;;;20.00;77.80;;;;;;5037996;28;20566;-68
2022/09/28 09:36:54;;;;;;;5.70;2.40;;;20.10;77.10;;;;;;5022661;28;20283;-68
2022/09/28 09:40:27;;;;;;;5.93;2.60;;;20.30;75.60;;;;;;5073888;28;20359;-69
2022/09/28 09:43:23;;;;;;;7.03;2.50;;;20.50;75.80;;;;;;5017983;28;20215;-69
2022/09/28 09:46:39;;;;;;;5.30;2.30;;;20.80;74.50;;;;;;5029329;28;20826;-69
2022/09/28 09:49:39;;;;;;;5.93;2.87;;;20.90;74.00;;;;;;5025525;28;20276;-69
2022/09/28 09:52:22;;;;;;;6.13;2.57;;;21.00;72.80;;;;;;5021824;28;20269;-69
2022/09/28 09:54:54;;;;;;;7.47;2.07;;;21.10;72.80;;;;;;5026242;28;20215;-69
2022/09/28 09:57:50;;;;;;;4.83;2.33;;;21.10;72.70;;;;;;5009856;28;20214;-69
2022/09/28 10:00:42;;;;;;;6.47;2.53;;;21.10;73.00;;;;;;5023739;28;20210;-68
2022/09/28 10:03:23;;;;;;;6.17;2.77;;;21.10;72.40;;;;;;5028095;28;20221;-68
2022/09/28 10:06:16;;;;;;;6.90;3.67;;;21.00;73.00;;;;;;5027401;28;20217;-69
2022/09/28 10:09:00;;;;;;;7.30;2.90;;;20.90;72.60;;;;;;5021571;28;20313;-69
2022/09/28 10:11:35;;;;;;;8.67;3.47;;;20.80;72.50;;;;;;5024394;28;20685;-68
2022/09/28 10:14:05;;;;;;;6.23;2.43;;;20.90;73.30;;;;;;5014520;28;20667;-68
2022/09/28 10:16:40;;;;;;;6.57;2.90;;;21.00;72.90;;;;;;5022127;28;20632;-69
2022/09/28 10:19:15;;;;;;;6.30;2.50;;;21.10;72.60;;;;;;5022181;28;20241;-69
2022/09/28 10:22:04;;;;;;;6.00;2.20;;;21.20;72.90;;;;;;5022216;28;20281;-69
2022/09/28 10:24:40;;;;;;;7.33;2.37;;;21.20;72.00;;;;;;5017997;28;20218;-68
2022/09/28 10:27:13;;;;;;;5.47;2.17;;;21.40;71.10;;;;;;5018490;28;20204;-68
2022/09/28 10:30:10;;;;;;;5.17;2.33;;;21.50;71.00;;;;;;5023663;28;20219;-68
2022/09/28 10:32:45;;;;;;;4.53;2.10;;;21.60;71.70;;;;;;5007115;28;20558;-69
2022/09/28 10:35:18;;;;;;;7.90;2.67;;;21.70;70.20;;;;;;5029499;28;20654;-68
2022/09/28 10:37:55;;;;;;;7.90;2.40;;;21.90;68.90;;;;;;5019858;28;20207;-69
2022/09/28 10:40:49;;;;;;;6.47;2.30;;;22.10;69.10;;;;;;5030300;28;20230;-68
2022/09/28 10:43:34;;;;;;;10.50;2.10;;;22.40;68.60;;;;;;5021706;28;20214;-68
2022/09/28 10:46:13;;;;;;;7.20;2.10;;;22.60;68.00;;;;;;5018815;28;20221;-68
2022/09/28 10:49:15;;;;;;;5.67;2.53;;;22.70;67.30;;;;;;5019960;28;20550;-68
2022/09/28 10:51:52;;;;;;;5.83;2.03;;;22.60;67.70;;;;;;5020767;28;20247;-69
2022/09/28 10:54:31;;;;;;;10.17;2.17;;;22.70;66.70;;;;;;5023663;28;20231;-69
2022/09/28 10:57:00;;;;;;;5.43;2.33;;;22.70;64.70;;;;;;5021263;28;20277;-70
2022/09/28 10:59:40;;;;;;;6.23;2.47;;;22.60;64.90;;;;;;5018889;28;20269;-69
2022/09/28 11:02:35;;;;;;;9.60;2.40;;;22.60;66.50;;;;;;5019544;28;20584;-69
2022/09/28 11:05:23;;;;;;;8.77;2.57;;;22.70;65.90;;;;;;5023047;28;20690;-69
2022/09/28 11:07:55;;;;;;;7.50;2.43;;;22.70;65.50;;;;;;5020675;28;20200;-69
2022/09/28 11:10:31;;;;;;;6.70;3.17;;;22.60;64.80;;;;;;5025309;28;20227;-69
2022/09/28 11:13:09;;;;;;;9.30;2.87;;;22.70;65.20;;;;;;5021710;28;20251;-69
2022/09/28 11:15:42;;;;;;;6.83;2.50;;;22.60;66.00;;;;;;5018283;28;20254;-69
2022/09/28 11:18:33;;;;;;;5.40;2.90;;;22.70;66.20;;;;;;5036298;28;20234;-69
2022/09/28 11:21:26;;;;;;;5.47;3.10;;;22.90;66.40;;;;;;5022562;28;20208;-69
2022/09/28 11:24:06;;;;;;;8.00;3.27;;;23.00;64.20;;;;;;5023470;28;20211;-69
2022/09/28 11:26:43;;;;;;;8.57;2.80;;;23.00;64.20;;;;;;5025137;28;20281;-69
2022/09/28 11:29:44;;;;;;;6.07;3.33;;;23.00;64.50;;;;;;5017590;28;20207;-69
2022/09/28 11:32:43;;;;;;;7.53;3.37;;;23.10;65.70;;;;;;5031994;28;20264;-69
2022/09/28 11:35:34;;;;;;;6.90;2.57;;;23.30;64.90;;;;;;5022446;28;20203;-69
2022/09/28 11:38:38;;;;;;;7.97;3.30;;;23.40;64.20;;;;;;5036949;28;20231;-69
2022/09/28 11:41:50;;;;;;;5.23;3.30;;;23.50;63.10;;;;;;5030293;28;20225;-69
2022/09/28 11:44:26;;;;;;;6.57;2.90;;;23.60;62.50;;;;;;5038698;28;20636;-69
2022/09/28 11:47:29;;;;;;;10.33;2.60;;;23.60;62.20;;;;;;5010276;28;20212;-69
2022/09/28 11:50:02;;;;;;;3.90;2.10;;;23.60;62.90;;;;;;5034125;28;20236;-69
2022/09/28 11:52:53;;;;;;;7.00;2.40;;;23.50;62.10;;;;;;5009052;28;20211;-69
2022/09/28 11:55:20;;;;;;;5.67;2.00;;;23.40;62.50;;;;;;5027086;28;20204;-70
2022/09/28 11:58:07;;;;;;;5.27;2.20;;;23.30;63.10;;;;;;5027811;28;20622;-69
2022/09/28 12:00:39;;;;;;;8.97;2.17;;;23.20;63.60;;;;;;5008496;28;20541;-69
2022/09/28 12:03:19;;;;;;;8.60;3.23;;;23.10;63.90;;;;;;5024953;28;20266;-70
2022/09/28 12:05:54;;;;;;;9.47;2.17;;;23.20;64.00;;;;;;5038876;28;20203;-69
2022/09/28 12:08:36;;;;;;;6.17;2.20;;;23.40;62.60;;;;;;5020266;28;20209;-69
2022/09/28 12:11:11;;;;;;;6.07;1.90;;;23.50;62.50;;;;;;5019378;28;20261;-69
2022/09/28 12:14:18;;;;;;;6.80;1.77;;;23.50;61.40;;;;;;5026926;28;20223;-69
2022/09/28 12:16:53;;;;;;;5.97;1.90;;;23.50;61.40;;;;;;5020637;28;20264;-69
2022/09/28 12:19:47;;;;;;;5.53;1.60;;;23.60;62.50;;;;;;5023476;28;20686;-69
2022/09/28 12:22:41;;;;;;;4.67;2.10;;;23.70;62.30;;;;;;5015171;28;20200;-69
2022/09/28 12:25:16;;;;;;;6.23;1.80;;;23.80;62.20;;;;;;5020743;28;20338;-69
2022/09/28 12:27:56;;;;;;;7.20;2.57;;;23.80;61.40;;;;;;5023631;28;20222;-69
2022/09/28 12:30:24;;;;;;;5.97;1.73;;;23.70;60.50;;;;;;5023852;28;20264;-69
2022/09/28 12:33:03;;;;;;;6.07;2.20;;;23.60;61.30;;;;;;5013202;28;20216;-69
2022/09/28 12:35:39;;;;;;;7.20;2.07;;;23.50;61.60;;;;;;5015783;28;20265;-69
2022/09/28 12:38:12;;;;;;;8.73;2.63;;;23.40;61.80;;;;;;5020855;28;20770;-69
2022/09/28 12:41:15;;;;;;;5.50;2.03;;;23.40;62.40;;;;;;5023920;28;20779;-69
2022/09/28 12:43:59;;;;;;;8.97;2.13;;;23.40;63.50;;;;;;5016902;28;20231;-69
2022/09/28 12:46:37;;;;;;;6.93;2.77;;;23.40;62.70;;;;;;5018601;28;20235;-69
2022/09/28 12:49:04;;;;;;;4.33;2.23;;;23.40;63.70;;;;;;5020400;28;20655;-69
2022/09/28 12:52:00;;;;;;;10.30;2.73;;;23.50;63.20;;;;;;5027087;28;20306;-69
2022/09/28 12:54:33;;;;;;;9.23;2.43;;;23.60;62.80;;;;;;5017519;28;20233;-69
2022/09/28 12:57:18;;;;;;;6.37;2.30;;;23.70;62.60;;;;;;5016972;28;20254;-69
2022/09/28 13:00:21;;;;;;;6.40;1.93;;;23.80;62.60;;;;;;5024937;28;20218;-68
2022/09/28 13:03:12;;;;;;;5.37;1.60;;;24.00;61.90;;;;;;5037293;28;20260;-68
2022/09/28 13:05:51;;;;;;;6.53;2.00;;;24.10;61.70;;;;;;5021812;28;20269;-67
2022/09/28 13:08:46;;;;;;;4.40;1.53;;;24.10;59.90;;;;;;5024950;28;20199;-68
2022/09/28 13:11:35;;;;;;;4.97;1.80;;;24.00;60.70;;;;;;5026403;28;20289;-68
2022/09/28 13:14:17;;;;;;;7.47;2.27;;;23.90;61.70;;;;;;5020963;28;20269;-67
2022/09/28 13:16:53;;;;;;;5.77;1.83;;;23.80;62.00;;;;;;5022020;28;20639;-67
2022/09/28 13:19:29;;;;;;;6.63;2.13;;;23.80;62.70;;;;;;5024186;28;20589;-67
2022/09/28 13:22:20;;;;;;;8.87;2.70;;;23.80;63.20;;;;;;5022073;28;20204;-67
2022/09/28 13:24:49;;;;;;;4.97;1.87;;;23.80;62.10;;;;;;5020505;28;20204;-67
2022/09/28 13:27:32;;;;;;;11.03;2.47;;;23.80;62.00;;;;;;5020387;28;20231;-67
2022/09/28 13:30:01;;;;;;;6.13;1.90;;;23.80;61.80;;;;;;5006502;28;20203;-68
2022/09/28 13:32:30;;;;;;;9.13;2.33;;;23.80;62.50;;;;;;5025269;28;20207;-68
2022/09/28 13:35:00;;;;;;;8.33;1.50;;;23.80;62.30;;;;;;5018508;28;20289;-68
2022/09/28 13:37:28;;;;;;;6.10;1.80;;;23.90;62.40;;;;;;5023925;28;20218;-67
2022/09/28 13:39:58;;;;;;;5.87;2.00;;;23.90;62.80;;;;;;5021746;28;20188;-68
2022/09/28 13:42:51;;;;;;;10.43;2.57;;;23.90;61.60;;;;;;5018715;28;20208;-67
2022/09/28 13:45:21;;;;;;;8.50;2.57;;;23.80;62.20;;;;;;5031631;28;20199;-68
2022/09/28 13:48:19;;;;;;;9.27;2.80;;;23.70;63.20;;;;;;5018628;28;20266;-68
2022/09/28 13:51:08;;;;;;;6.77;2.17;;;23.70;62.90;;;;;;5021785;28;20207;-67
2022/09/28 13:54:06;;;;;;;8.57;2.70;;;23.70;62.70;;;;;;5021571;28;20273;-68